createdAt,value
2018-01-10T00:01:02.767Z,100478.48
2018-01-10T00:03:28.731Z,100481.73
2018-01-10T00:05:54.885Z,100469.48
2018-01-10T00:08:20.859Z,100474.48
2018-01-10T00:18:23.176Z,100465.98
2018-01-10T00:20:49.184Z,100464.66
2018-01-10T00:23:15.163Z,100464.52
2018-01-10T00:25:41.134Z,100457.69
2018-01-10T00:28:07.136Z,100460.47
2018-01-10T00:30:33.136Z,100448.90
2018-01-10T00:32:59.111Z,100455.81
2018-01-10T00:35:25.108Z,100454.09
2018-01-10T00:37:51.072Z,100453.81
2018-01-10T00:40:17.040Z,100458.80
2018-01-10T00:42:43.059Z,100457.23
2018-01-10T00:45:09.020Z,100452.95
2018-01-10T00:47:34.974Z,100450.02
2018-01-10T00:50:01.012Z,100444.09
2018-01-10T00:52:26.966Z,100448.28
2018-01-10T00:54:52.943Z,100433.03
2018-01-10T00:57:18.903Z,100439.95
2018-01-10T00:59:44.856Z,100442.19
2018-01-10T01:02:10.849Z,100435.14
2018-01-10T01:04:36.835Z,100444.87
2018-01-10T01:07:02.818Z,100439.28
2018-01-10T01:09:28.785Z,100437.13
2018-01-10T01:11:55.754Z,100442.77
2018-01-10T01:14:21.738Z,100441.55
2018-01-10T01:16:47.740Z,100439.41
2018-01-10T01:19:13.731Z,100445.73
2018-01-10T01:21:39.690Z,100442.27
2018-01-10T01:24:05.664Z,100446.55
2018-01-10T01:26:31.634Z,100446.69
2018-01-10T01:28:57.634Z,100447.19
2018-01-10T01:31:23.598Z,100445.73
2018-01-10T01:33:49.550Z,100442.64
2018-01-10T01:36:15.531Z,100448.83
2018-01-10T01:38:43.551Z,100452.83
2018-01-10T01:41:09.515Z,100447.05
2018-01-10T01:43:35.499Z,100450.51
2018-01-10T01:46:01.474Z,100445.32
2018-01-10T01:48:27.642Z,100446.01
2018-01-10T01:50:53.698Z,100443.50
2018-01-10T01:53:19.667Z,100439.45
2018-01-10T01:55:45.631Z,100449.14
2018-01-10T01:58:11.639Z,100444.37
2018-01-10T02:00:37.626Z,100443.19
2018-01-10T02:03:03.626Z,100444.87
2018-01-10T02:05:29.685Z,100448.83
2018-01-10T02:07:55.665Z,100448.50
2018-01-10T02:10:21.626Z,100449.73
2018-01-10T02:12:47.616Z,100451.38
2018-01-10T02:15:13.600Z,100446.96
2018-01-10T02:17:39.627Z,100450.82
2018-01-10T02:20:05.582Z,100454.78
2018-01-10T02:22:31.577Z,100446.45
2018-01-10T02:24:57.544Z,100457.23
2018-01-10T02:27:23.558Z,100454.11
2018-01-10T02:29:49.612Z,100446.59
2018-01-10T02:32:15.598Z,100452.61
2018-01-10T02:34:41.551Z,100451.33
2018-01-10T02:37:07.518Z,100446.73
2018-01-10T02:39:33.487Z,100449.32
2018-01-10T02:41:59.463Z,100443.41
2018-01-10T02:44:25.440Z,100446.97
2018-01-10T02:46:51.482Z,100444.19
2018-01-10T02:49:17.438Z,100443.46
2018-01-10T02:51:43.439Z,100443.55
2018-01-10T02:54:09.419Z,100443.41
2018-01-10T02:56:35.382Z,100444.82
2018-01-10T02:59:01.368Z,100435.45
2018-01-10T03:01:27.335Z,100436.41
2018-01-10T03:03:53.313Z,100439.22
2018-01-10T03:06:19.291Z,100436.00
2018-01-10T03:08:45.266Z,100436.68
2018-01-10T03:11:11.247Z,100433.09
2018-01-10T03:13:37.245Z,100427.49
2018-01-10T03:16:03.214Z,100428.54
2018-01-10T03:18:29.185Z,100425.84
2018-01-10T03:20:55.150Z,100421.80
2018-01-10T03:23:21.118Z,100415.52
2018-01-10T03:25:47.092Z,100405.70
2018-01-10T03:28:13.078Z,100408.02
2018-01-10T03:30:39.070Z,100409.11
2018-01-10T03:33:05.029Z,100413.97
2018-01-10T03:35:31.019Z,100412.70
2018-01-10T03:37:56.982Z,100415.02
2018-01-10T03:40:22.987Z,100418.84
2018-01-10T03:42:48.953Z,100417.47
2018-01-10T03:45:14.932Z,100421.58
2018-01-10T03:47:40.921Z,100421.67
2018-01-10T03:50:06.941Z,100425.98
2018-01-10T03:52:32.926Z,100420.43
2018-01-10T03:54:58.910Z,100415.98
2018-01-10T03:57:24.886Z,100419.38
2018-01-10T03:59:50.891Z,100419.68
2018-01-10T04:02:16.866Z,100416.05
2018-01-10T04:04:42.856Z,100405.84
2018-01-10T04:07:08.827Z,100410.39
2018-01-10T04:09:34.801Z,100412.30
2018-01-10T04:12:00.799Z,100411.53
2018-01-10T04:14:26.786Z,100412.71
2018-01-10T04:16:52.757Z,100405.52
2018-01-10T04:19:18.730Z,100408.66
2018-01-10T04:21:44.738Z,100404.56
2018-01-10T04:24:10.733Z,100408.11
2018-01-10T04:26:36.718Z,100409.28
2018-01-10T04:29:02.689Z,100408.80
2018-01-10T04:31:28.681Z,100395.43
2018-01-10T04:33:54.665Z,100398.24
2018-01-10T04:36:20.656Z,100399.09
2018-01-10T04:38:46.663Z,100399.09
2018-01-10T04:41:12.626Z,100393.22
2018-01-10T04:43:39.636Z,100396.71
2018-01-10T04:46:05.613Z,100391.41
2018-01-10T04:48:31.583Z,100392.09
2018-01-10T04:50:57.571Z,100387.60
2018-01-10T04:53:23.587Z,100387.81
2018-01-10T04:55:49.586Z,100388.86
2018-01-10T04:58:15.574Z,100386.41
2018-01-10T05:00:41.550Z,100396.69
2018-01-10T05:03:07.575Z,100386.70
2018-01-10T05:05:33.535Z,100385.63
2018-01-10T05:07:59.516Z,100394.05
2018-01-10T05:10:25.484Z,100395.95
2018-01-10T05:12:51.441Z,100389.94
2018-01-10T05:15:17.418Z,100387.91
2018-01-10T05:17:43.432Z,100392.98
2018-01-10T05:20:09.404Z,100386.17
2018-01-10T05:22:35.372Z,100385.58
2018-01-10T05:25:01.359Z,100387.55
2018-01-10T05:27:27.336Z,100392.19
2018-01-10T05:29:53.312Z,100387.81
2018-01-10T05:32:19.271Z,100390.50
2018-01-10T05:34:45.232Z,100389.22
2018-01-10T05:37:11.208Z,100389.76
2018-01-10T05:39:37.176Z,100388.17
2018-01-10T05:42:03.158Z,100396.09
2018-01-10T05:44:29.114Z,100394.01
2018-01-10T05:46:55.201Z,100391.95
2018-01-10T05:49:21.209Z,100394.09
2018-01-10T05:51:47.177Z,100392.11
2018-01-10T05:54:13.186Z,100386.88
2018-01-10T05:56:39.158Z,100385.56
2018-01-10T05:59:05.105Z,100394.78
2018-01-10T06:01:31.123Z,100390.61
2018-01-10T06:03:57.102Z,100396.53
2018-01-10T06:06:23.093Z,100394.55
2018-01-10T06:08:49.089Z,100399.02
2018-01-10T06:11:15.073Z,100396.97
2018-01-10T06:13:41.062Z,100391.56
2018-01-10T06:16:07.066Z,100395.38
2018-01-10T06:18:33.059Z,100392.94
2018-01-10T06:20:59.063Z,100397.36
2018-01-10T06:23:25.034Z,100395.16
2018-01-10T06:25:50.986Z,100397.53
2018-01-10T06:28:16.957Z,100401.48
2018-01-10T06:30:42.971Z,100407.56
2018-01-10T06:33:08.919Z,100404.72
2018-01-10T06:35:34.931Z,100404.88
2018-01-10T06:38:00.900Z,100404.02
2018-01-10T06:40:26.865Z,100410.27
2018-01-10T06:42:52.869Z,100404.36
2018-01-10T06:45:18.863Z,100403.14
2018-01-10T06:47:44.839Z,100405.16
2018-01-10T06:50:10.842Z,100408.52
2018-01-10T06:52:36.827Z,100412.73
2018-01-10T06:55:02.839Z,100416.78
2018-01-10T06:57:29.097Z,100413.41
2018-01-10T06:59:55.124Z,100416.00
2018-01-10T07:02:21.089Z,100415.18
2018-01-10T07:04:47.074Z,100415.47
2018-01-10T07:07:13.046Z,100416.94
2018-01-10T07:09:39.094Z,100417.61
2018-01-10T07:14:37.511Z,100421.38
2018-01-10T07:17:03.578Z,100417.88
2018-01-10T07:19:29.596Z,100417.80
2018-01-10T07:21:55.626Z,100422.72
2018-01-10T07:24:21.779Z,100423.80
2018-01-10T07:26:47.794Z,100423.45
2018-01-10T07:29:13.781Z,100422.36
2018-01-10T07:31:39.796Z,100425.48
2018-01-10T07:34:05.752Z,100427.27
2018-01-10T07:36:31.771Z,100427.00
2018-01-10T07:38:57.751Z,100426.71
2018-01-10T07:41:23.715Z,100428.30
2018-01-10T07:43:49.705Z,100432.58
2018-01-10T07:46:15.670Z,100440.50
2018-01-10T07:48:41.648Z,100435.81
2018-01-10T07:51:07.610Z,100444.00
2018-01-10T07:53:34.283Z,100446.31
2018-01-10T07:56:00.272Z,100450.80
2018-01-10T07:58:26.231Z,100446.76
2018-01-10T08:00:53.244Z,100452.95
2018-01-10T08:03:19.230Z,100449.58
2018-01-10T08:05:49.075Z,100445.08
2018-01-10T08:08:15.084Z,100451.69
2018-01-10T08:10:41.112Z,100452.86
2018-01-10T08:13:07.087Z,100452.19
2018-01-10T08:15:33.138Z,100454.16
2018-01-10T08:17:59.137Z,100464.04
2018-01-10T08:20:25.139Z,100462.34
2018-01-10T08:22:51.113Z,100454.44
2018-01-10T08:25:17.092Z,100448.57
2018-01-10T08:27:43.081Z,100455.03
2018-01-10T08:30:09.065Z,100451.45
2018-01-10T08:32:35.026Z,100453.95
2018-01-10T08:35:01.024Z,100460.72
2018-01-10T08:37:27.006Z,100458.50
2018-01-10T08:39:53.003Z,100460.61
2018-01-10T08:42:18.990Z,100456.06
2018-01-10T08:44:44.963Z,100461.46
2018-01-10T08:47:10.966Z,100454.30
2018-01-10T08:49:36.955Z,100459.11
2018-01-10T08:52:02.956Z,100454.45
2018-01-10T08:54:28.915Z,100457.17
2018-01-10T08:56:55.071Z,100465.34
2018-01-10T08:59:21.057Z,100470.67
2018-01-10T09:01:47.035Z,100477.41
2018-01-10T09:04:13.024Z,100474.03
2018-01-10T09:06:38.987Z,100471.06
2018-01-10T09:09:04.983Z,100471.00
2018-01-10T09:11:30.952Z,100469.70
2018-01-10T09:13:56.903Z,100468.06
2018-01-10T09:16:22.886Z,100468.03
2018-01-10T09:18:48.845Z,100466.98
2018-01-10T09:21:14.834Z,100472.82
2018-01-10T09:23:41.997Z,100472.26
2018-01-10T09:26:07.968Z,100473.88
2018-01-10T09:28:33.970Z,100468.94
2018-01-10T09:30:59.937Z,100470.41
2018-01-10T09:33:25.973Z,100469.77
2018-01-10T09:35:51.945Z,100466.79
2018-01-10T09:38:17.932Z,100460.63
2018-01-10T09:40:44.039Z,100461.27
2018-01-10T09:43:10.001Z,100459.83
2018-01-10T09:45:35.998Z,100462.16
2018-01-10T09:48:01.982Z,100462.54
2018-01-10T09:50:27.960Z,100464.98
2018-01-10T09:52:53.949Z,100459.28
2018-01-10T09:55:19.917Z,100461.93
2018-01-10T09:57:45.893Z,100458.17
2018-01-10T10:00:11.859Z,100465.77
2018-01-10T10:02:37.849Z,100458.38
2018-01-10T10:05:03.843Z,100466.41
2018-01-10T10:07:29.776Z,100462.95
2018-01-10T10:09:55.770Z,100456.41
2018-01-10T10:12:21.779Z,100462.03
2018-01-10T10:14:47.763Z,100469.64
2018-01-10T10:17:13.737Z,100464.63
2018-01-10T10:19:39.702Z,100459.34
2018-01-10T10:22:05.826Z,100455.34
2018-01-10T10:24:31.827Z,100455.78
2018-01-10T10:26:57.807Z,100452.30
2018-01-10T10:29:23.818Z,100456.69
2018-01-10T10:31:49.817Z,100453.58
2018-01-10T10:34:15.830Z,100445.05
2018-01-10T10:36:41.792Z,100446.14
2018-01-10T10:39:07.817Z,100449.67
2018-01-10T10:41:33.780Z,100436.13
2018-01-10T10:43:59.780Z,100437.44
2018-01-10T10:46:25.780Z,100430.27
2018-01-10T10:48:51.757Z,100436.82
2018-01-10T10:51:17.737Z,100426.53
2018-01-10T10:53:43.701Z,100424.73
2018-01-10T10:56:09.717Z,100428.52
2018-01-10T10:58:35.796Z,100417.06
2018-01-10T11:01:01.793Z,100419.97
2018-01-10T11:03:27.762Z,100417.00
2018-01-10T11:05:54.802Z,100410.94
2018-01-10T11:08:20.886Z,100401.26
2018-01-10T11:10:46.882Z,100404.61
2018-01-10T11:13:12.868Z,100403.11
2018-01-10T11:15:38.884Z,100398.98
2018-01-10T11:18:04.832Z,100395.53
2018-01-10T11:20:30.841Z,100394.78
2018-01-10T11:22:56.822Z,100396.84
2018-01-10T11:25:22.811Z,100391.45
2018-01-10T11:27:48.793Z,100393.59
2018-01-10T11:30:14.771Z,100386.58
2018-01-10T11:32:40.829Z,100388.47
2018-01-10T11:35:06.808Z,100387.96
2018-01-10T11:37:32.793Z,100384.25
2018-01-10T11:39:58.787Z,100381.05
2018-01-10T11:42:24.787Z,100379.73
2018-01-10T11:44:50.808Z,100381.21
2018-01-10T11:47:16.784Z,100374.27
2018-01-10T11:49:42.739Z,100371.45
2018-01-10T11:52:08.724Z,100372.20
2018-01-10T11:54:34.807Z,100364.20
2018-01-10T11:57:01.048Z,100362.45
2018-01-10T11:59:28.616Z,100354.39
2018-01-10T12:01:54.649Z,100357.85
2018-01-10T12:04:20.822Z,100355.79
2018-01-10T12:06:46.836Z,100351.91
2018-01-10T12:09:12.835Z,100351.75
2018-01-10T12:11:38.915Z,100359.39
2018-01-10T12:14:04.904Z,100356.56
2018-01-10T12:16:30.881Z,100351.99
2018-01-10T12:18:56.913Z,100349.84
2018-01-10T12:21:22.916Z,100351.14
2018-01-10T12:23:48.904Z,100340.67
2018-01-10T12:26:14.910Z,100348.91
2018-01-10T12:28:40.882Z,100341.08
2018-01-10T12:31:06.870Z,100340.73
2018-01-10T12:33:32.868Z,100346.88
2018-01-10T12:35:58.914Z,100342.81
2018-01-10T12:38:24.975Z,100347.03
2018-01-10T12:40:50.976Z,100340.26
2018-01-10T12:43:16.960Z,100340.50
2018-01-10T12:45:42.951Z,100339.19
2018-01-10T12:48:08.933Z,100339.44
2018-01-10T12:50:34.931Z,100339.98
2018-01-10T12:53:00.898Z,100340.47
2018-01-10T12:55:26.876Z,100341.22
2018-01-10T12:57:52.907Z,100339.70
2018-01-10T13:00:18.983Z,100339.16
2018-01-10T13:02:44.971Z,100337.86
2018-01-10T13:05:10.937Z,100338.45
2018-01-10T13:07:36.913Z,100332.89
2018-01-10T13:10:02.875Z,100331.07
2018-01-10T13:12:28.923Z,100332.98
2018-01-10T13:14:54.872Z,100331.48
2018-01-10T13:17:20.900Z,100334.32
2018-01-10T13:19:46.888Z,100334.90
2018-01-10T13:22:12.872Z,100336.31
2018-01-10T13:24:38.826Z,100338.44
2018-01-10T13:27:04.862Z,100335.67
2018-01-10T13:29:30.895Z,100332.50
2018-01-10T13:31:56.905Z,100333.58
2018-01-10T13:34:22.846Z,100323.28
2018-01-10T13:36:48.830Z,100318.42
2018-01-10T13:39:14.796Z,100322.88
2018-01-10T13:41:40.820Z,100326.09
2018-01-10T13:44:06.813Z,100321.70
2018-01-10T13:46:32.782Z,100325.83
2018-01-10T13:48:59.024Z,100320.67
2018-01-10T13:51:25.115Z,100324.14
2018-01-10T13:53:51.110Z,100322.42
2018-01-10T13:56:18.094Z,100328.80
2018-01-10T13:58:44.041Z,100325.48
2018-01-10T14:01:10.019Z,100328.44
2018-01-10T14:03:36.003Z,100331.02
2018-01-10T14:06:02.012Z,100333.98
2018-01-10T14:08:29.079Z,100343.81
2018-01-10T14:10:55.018Z,100344.13
2018-01-10T14:13:21.006Z,100344.71
2018-01-10T14:15:47.756Z,100347.61
2018-01-10T14:18:13.707Z,100357.30
2018-01-10T14:20:39.767Z,100349.59
2018-01-10T14:23:05.757Z,100352.92
2018-01-10T14:25:31.767Z,100354.84
2018-01-10T14:27:57.758Z,100355.87
2018-01-10T14:30:23.733Z,100366.83
2018-01-10T14:32:49.703Z,100371.30
2018-01-10T14:35:15.692Z,100364.27
2018-01-10T14:40:13.097Z,100365.91
2018-01-10T14:42:39.232Z,100360.41
2018-01-10T14:45:05.216Z,100364.14
2018-01-10T14:47:31.184Z,100364.35
2018-01-10T14:49:57.179Z,100357.34
2018-01-10T14:52:23.212Z,100362.06
2018-01-10T14:54:49.197Z,100364.52
2018-01-10T14:57:15.192Z,100358.84
2018-01-10T14:59:41.136Z,100371.33
2018-01-10T15:02:08.149Z,100368.16
2018-01-10T15:04:34.167Z,100371.23
2018-01-10T15:07:00.169Z,100365.59
2018-01-10T15:09:26.128Z,100364.35
2018-01-10T15:11:52.139Z,100361.41
2018-01-10T15:14:18.122Z,100362.08
2018-01-10T15:16:44.082Z,100360.30
2018-01-10T15:19:10.121Z,100365.97
2018-01-10T15:21:36.113Z,100365.25
2018-01-10T15:24:02.126Z,100368.95
2018-01-10T15:26:28.116Z,100376.70
2018-01-10T15:28:54.134Z,100380.66
2018-01-10T15:31:20.184Z,100381.55
2018-01-10T15:33:49.704Z,100382.96
2018-01-10T15:36:19.386Z,100374.92
2018-01-10T15:38:45.405Z,100378.25
2018-01-10T15:41:11.369Z,100380.55
2018-01-10T15:43:37.334Z,100377.81
2018-01-10T15:46:03.296Z,100376.58
2018-01-10T15:48:29.286Z,100379.37
2018-01-10T15:50:55.399Z,100379.96
2018-01-10T15:53:21.383Z,100379.59
2018-01-10T15:55:47.393Z,100381.55
2018-01-10T15:58:13.384Z,100376.91
2018-01-10T16:00:39.376Z,100380.89
2018-01-10T16:03:05.362Z,100381.90
2018-01-10T16:05:31.322Z,100376.09
2018-01-10T16:07:57.337Z,100379.84
2018-01-10T16:10:23.355Z,100380.66
2018-01-10T16:12:49.334Z,100379.06
2018-01-10T16:15:15.344Z,100380.73
2018-01-10T16:17:41.346Z,100373.70
2018-01-10T16:20:07.324Z,100375.09
2018-01-10T16:22:33.313Z,100374.45
2018-01-10T16:24:59.300Z,100376.27
2018-01-10T16:27:25.283Z,100372.48
2018-01-10T16:32:22.983Z,100376.44
2018-01-10T16:34:48.972Z,100382.07
2018-01-10T16:37:14.965Z,100377.06
2018-01-10T16:39:40.951Z,100389.30
2018-01-10T16:42:06.909Z,100384.45
2018-01-10T16:44:32.868Z,100390.11
2018-01-10T16:46:58.859Z,100400.58
2018-01-10T16:49:24.824Z,100399.30
2018-01-10T16:51:50.819Z,100395.99
2018-01-10T16:54:16.767Z,100403.93
2018-01-10T16:56:42.774Z,100401.78
2018-01-10T16:59:08.805Z,100409.22
2018-01-10T17:01:34.767Z,100408.32
2018-01-10T17:04:00.781Z,100402.29
2018-01-10T17:06:26.787Z,100411.45
2018-01-10T17:08:52.828Z,100412.52
2018-01-10T17:11:18.811Z,100408.72
2018-01-10T17:13:44.783Z,100414.02
2018-01-10T17:16:10.795Z,100418.24
2018-01-10T17:18:36.790Z,100414.73
2018-01-10T17:21:02.738Z,100416.23
2018-01-10T17:23:28.718Z,100422.06
2018-01-10T17:25:54.678Z,100421.52
2018-01-10T17:30:52.596Z,100423.01
2018-01-10T17:33:18.580Z,100421.54
2018-01-10T17:35:44.534Z,100417.31
2018-01-10T17:38:10.777Z,100418.64
2018-01-10T17:40:36.857Z,100418.81
2018-01-10T17:43:02.839Z,100422.94
2018-01-10T17:45:28.812Z,100425.86
2018-01-10T17:47:54.738Z,100426.91
2018-01-10T17:50:20.719Z,100429.30
2018-01-10T17:52:46.691Z,100428.41
2018-01-10T17:55:12.684Z,100428.62
2018-01-10T17:57:38.876Z,100430.70
2018-01-10T18:00:05.137Z,100433.23
2018-01-10T18:02:31.318Z,100431.02
2018-01-10T18:04:58.913Z,100439.12
2018-01-10T18:07:24.987Z,100432.30
2018-01-10T18:09:51.008Z,100435.92
2018-01-10T18:12:17.525Z,100434.94
2018-01-10T18:14:44.271Z,100437.23
2018-01-10T18:17:11.079Z,100443.85
2018-01-10T18:19:37.347Z,100449.22
2018-01-10T18:22:03.572Z,100451.04
2018-01-10T18:24:29.615Z,100448.64
2018-01-10T18:26:55.612Z,100443.61
2018-01-10T18:29:21.582Z,100444.00
2018-01-10T18:31:47.552Z,100445.94
2018-01-10T18:34:13.556Z,100441.05
2018-01-10T18:36:39.651Z,100447.50
2018-01-10T18:39:05.678Z,100444.77
2018-01-10T18:41:31.698Z,100445.25
2018-01-10T18:43:57.669Z,100449.98
2018-01-10T18:46:23.652Z,100447.39
2018-01-10T18:48:49.632Z,100451.03
2018-01-10T18:51:15.634Z,100450.18
2018-01-10T18:53:41.638Z,100453.27
2018-01-10T18:56:07.627Z,100455.08
2018-01-10T18:58:33.593Z,100455.56
2018-01-10T19:00:59.557Z,100457.74
2018-01-10T19:03:25.580Z,100461.95
2018-01-10T19:05:51.574Z,100460.05
2018-01-10T19:08:17.673Z,100467.75
2018-01-10T19:10:43.758Z,100466.17
2018-01-10T19:13:09.761Z,100463.59
2018-01-10T19:15:35.752Z,100467.00
2018-01-10T19:18:02.930Z,100460.75
2018-01-10T19:20:28.960Z,100462.89
2018-01-10T19:22:54.993Z,100467.17
2018-01-10T19:25:21.036Z,100460.06
2018-01-10T19:27:47.049Z,100459.02
2018-01-10T19:30:13.054Z,100463.78
2018-01-10T19:32:39.018Z,100459.23
2018-01-10T19:35:04.996Z,100457.23
2018-01-10T19:37:31.181Z,100455.09
2018-01-10T19:39:57.184Z,100456.98
2018-01-10T19:42:23.164Z,100463.92
2018-01-10T19:44:49.130Z,100458.83
2018-01-10T19:47:15.140Z,100459.14
2018-01-10T19:49:41.435Z,100465.59
2018-01-10T19:52:07.416Z,100468.40
2018-01-10T19:54:33.391Z,100464.86
2018-01-10T19:56:59.433Z,100474.36
2018-01-10T19:59:25.784Z,100474.84
2018-01-10T20:01:51.769Z,100479.67
2018-01-10T20:04:17.891Z,100488.64
2018-01-10T20:06:43.951Z,100488.52
2018-01-10T20:09:12.014Z,100486.12
2018-01-10T20:11:38.130Z,100490.59
2018-01-10T20:14:04.297Z,100496.34
2018-01-10T20:16:30.309Z,100495.08
2018-01-10T20:18:56.299Z,100496.67
2018-01-10T20:21:22.249Z,100487.91
2018-01-10T20:23:48.537Z,100490.03
2018-01-10T20:26:20.859Z,100492.77
2018-01-10T20:28:47.102Z,100497.95
2018-01-10T20:31:13.061Z,100500.30
2018-01-10T20:33:39.093Z,100499.24
2018-01-10T20:36:05.091Z,100498.72
2018-01-10T20:38:31.108Z,100503.36
2018-01-10T20:40:57.222Z,100510.73
2018-01-10T20:43:23.197Z,100518.02
2018-01-10T20:45:49.240Z,100514.59
2018-01-10T20:48:15.220Z,100516.06
2018-01-10T20:50:41.199Z,100512.30
2018-01-10T20:53:07.218Z,100507.85
2018-01-10T20:55:33.214Z,100508.61
2018-01-10T20:57:59.208Z,100513.64
2018-01-10T21:00:25.172Z,100516.38
2018-01-10T21:02:51.201Z,100504.80
2018-01-10T21:05:17.251Z,100514.84
2018-01-10T21:07:43.236Z,100511.59
2018-01-10T21:10:09.956Z,100514.77
2018-01-10T21:12:36.717Z,100509.95
2018-01-10T21:15:02.943Z,100514.02
2018-01-10T21:20:00.764Z,100516.83
2018-01-10T21:22:26.782Z,100508.82
2018-01-10T21:24:52.751Z,100518.69
2018-01-10T21:27:20.496Z,100516.45
2018-01-10T21:29:46.487Z,100513.81
2018-01-10T21:32:17.850Z,100517.05
2018-01-10T21:34:43.818Z,100518.28
2018-01-10T21:39:41.757Z,100513.00
2018-01-10T21:42:07.738Z,100515.01
2018-01-10T21:44:33.694Z,100520.61
2018-01-10T21:46:59.670Z,100521.83
2018-01-10T21:49:25.638Z,100528.05
2018-01-10T21:51:51.617Z,100521.83
2018-01-10T21:56:48.757Z,100531.89
2018-01-10T21:59:14.714Z,100535.65
2018-01-10T22:04:12.460Z,100528.05
2018-01-10T22:06:38.424Z,100533.42
2018-01-10T22:09:04.391Z,100534.36
2018-01-10T22:11:30.432Z,100533.89
2018-01-10T22:13:56.399Z,100535.71
2018-01-10T22:16:22.368Z,100532.04
2018-01-10T22:18:48.366Z,100537.77
2018-01-10T22:21:14.358Z,100537.15
2018-01-10T22:23:40.329Z,100543.72
2018-01-10T22:26:06.302Z,100544.39
2018-01-10T22:28:32.265Z,100545.30
2018-01-10T22:30:58.244Z,100543.36
2018-01-10T22:33:24.250Z,100545.08
2018-01-10T22:35:50.221Z,100548.41
2018-01-10T22:38:16.203Z,100554.02
2018-01-10T22:40:42.186Z,100556.41
2018-01-10T22:43:08.151Z,100557.05
2018-01-10T22:45:34.129Z,100553.02
2018-01-10T22:48:00.099Z,100554.89
2018-01-10T22:50:26.097Z,100558.94
2018-01-10T22:52:52.058Z,100557.12
2018-01-10T22:55:18.023Z,100558.36
2018-01-10T22:57:44.012Z,100560.94
2018-01-10T23:00:09.978Z,100565.63
2018-01-10T23:02:35.976Z,100564.05
2018-01-10T23:05:01.977Z,100563.17
2018-01-10T23:07:28.040Z,100563.05
2018-01-10T23:09:53.989Z,100561.18
2018-01-10T23:12:20.103Z,100567.61
2018-01-10T23:14:46.127Z,100560.64
2018-01-10T23:17:12.525Z,100571.06
2018-01-10T23:19:38.580Z,100575.75
2018-01-10T23:22:04.575Z,100573.60
2018-01-10T23:24:30.553Z,100574.58
2018-01-10T23:26:56.533Z,100574.70
2018-01-10T23:29:22.530Z,100576.67
2018-01-10T23:31:48.527Z,100578.22
2018-01-10T23:34:14.695Z,100579.95
2018-01-10T23:36:40.683Z,100573.94
2018-01-10T23:39:06.720Z,100585.19
2018-01-10T23:41:32.696Z,100584.92
2018-01-10T23:43:58.699Z,100588.28
2018-01-10T23:46:24.694Z,100589.83
2018-01-10T23:48:50.671Z,100585.91
2018-01-10T23:51:16.633Z,100582.67
2018-01-10T23:56:14.335Z,100587.56
2018-01-10T23:58:40.306Z,100588.09
